sensor_id;sensor_type;location;lat;lon;timestamp;noise_LAeq;noise_LA_min;noise_LA_max;noise_LA01;noise_LA95
49215;Laerm;45943;53.148;8.204;2024-03-07T00:00:59;41.88;38.65;44.18;;
49215;Laerm;45943;53.148;8.204;2024-03-07T00:03:26;41.86;39.12;49.72;;
49215;Laerm;45943;53.148;8.204;2024-03-07T00:05:52;48.53;37.92;65.30;;
49215;Laerm;45943;53.148;8.204;2024-03-07T00:08:18;46.71;38.48;64.10;;
49215;Laerm;45943;53.148;8.204;2024-03-07T00:10:43;41.54;38.30;44.91;;
49215;Laerm;45943;53.148;8.204;2024-03-07T00:13:10;41.14;36.26;45.36;;
49215;Laerm;45943;53.148;8.204;2024-03-07T00:15:36;40.71;36.80;42.89;;
49215;Laerm;45943;53.148;8.204;2024-03-07T00:18:02;41.01;36.80;43.84;;
49215;Laerm;45943;53.148;8.204;2024-03-07T00:20:28;40.59;36.80;47.26;;
49215;Laerm;45943;53.148;8.204;2024-03-07T00:22:54;40.77;36.80;45.54;;
49215;Laerm;45943;53.148;8.204;2024-03-07T00:25:20;40.77;36.70;45.29;;
49215;Laerm;45943;53.148;8.204;2024-03-07T00:27:48;41.11;36.94;49.44;;
49215;Laerm;45943;53.148;8.204;2024-03-07T00:30:14;41.30;37.51;44.54;;
49215;Laerm;45943;53.148;8.204;2024-03-07T00:32:44;40.35;36.54;42.63;;
49215;Laerm;45943;53.148;8.204;2024-03-07T00:35:11;40.42;36.26;42.69;;
49215;Laerm;45943;53.148;8.204;2024-03-07T00:37:37;40.89;37.51;43.07;;
49215;Laerm;45943;53.148;8.204;2024-03-07T00:40:03;40.61;36.80;44.28;;
49215;Laerm;45943;53.148;8.204;2024-03-07T00:42:29;41.39;37.51;48.02;;
49215;Laerm;45943;53.148;8.204;2024-03-07T00:44:56;43.09;37.92;62.03;;
49215;Laerm;45943;53.148;8.204;2024-03-07T00:47:21;40.78;36.26;43.48;;
49215;Laerm;45943;53.148;8.204;2024-03-07T00:49:48;49.14;36.80;66.00;;
49215;Laerm;45943;53.148;8.204;2024-03-07T00:52:14;40.86;37.05;46.37;;
49215;Laerm;45943;53.148;8.204;2024-03-07T00:54:41;40.92;36.80;45.22;;
49215;Laerm;45943;53.148;8.204;2024-03-07T00:57:07;40.62;36.54;47.53;;
49215;Laerm;45943;53.148;8.204;2024-03-07T00:59:33;40.58;36.54;44.32;;
49215;Laerm;45943;53.148;8.204;2024-03-07T01:01:59;40.48;36.54;45.93;;
49215;Laerm;45943;53.148;8.204;2024-03-07T01:04:25;40.74;36.80;43.48;;
49215;Laerm;45943;53.148;8.204;2024-03-07T01:06:57;40.09;35.96;46.23;;
49215;Laerm;45943;53.148;8.204;2024-03-07T01:09:24;40.28;36.80;42.69;;
49215;Laerm;45943;53.148;8.204;2024-03-07T01:11:50;41.04;37.05;44.49;;
49215;Laerm;45943;53.148;8.204;2024-03-07T01:14:16;41.32;36.26;44.50;;
49215;Laerm;45943;53.148;8.204;2024-03-07T01:16:42;40.93;35.96;46.17;;
49215;Laerm;45943;53.148;8.204;2024-03-07T01:19:08;41.11;37.05;43.01;;
49215;Laerm;45943;53.148;8.204;2024-03-07T01:21:34;41.00;37.72;43.42;;
49215;Laerm;45943;53.148;8.204;2024-03-07T01:24:03;40.91;36.80;48.56;;
49215;Laerm;45943;53.148;8.204;2024-03-07T01:26:30;58.98;38.48;72.66;;
49215;Laerm;45943;53.148;8.204;2024-03-07T01:28:57;54.86;37.29;70.96;;
49215;Laerm;45943;53.148;8.204;2024-03-07T01:31:24;41.47;37.29;44.28;;
49215;Laerm;45943;53.148;8.204;2024-03-07T01:33:50;41.16;37.72;47.22;;
49215;Laerm;45943;53.148;8.204;2024-03-07T01:36:16;40.48;36.26;43.25;;
49215;Laerm;45943;53.148;8.204;2024-03-07T01:38:42;40.80;36.54;48.46;;
49215;Laerm;45943;53.148;8.204;2024-03-07T01:41:08;40.68;37.05;46.49;;
49215;Laerm;45943;53.148;8.204;2024-03-07T01:43:34;40.64;37.72;43.74;;
49215;Laerm;45943;53.148;8.204;2024-03-07T01:46:00;40.77;37.58;43.29;;
49215;Laerm;45943;53.148;8.204;2024-03-07T01:48:27;40.67;36.54;43.64;;
49215;Laerm;45943;53.148;8.204;2024-03-07T01:50:58;44.47;38.48;65.60;;
49215;Laerm;45943;53.148;8.204;2024-03-07T01:53:29;40.89;37.29;43.89;;
49215;Laerm;45943;53.148;8.204;2024-03-07T01:55:56;40.45;35.96;43.74;;
49215;Laerm;45943;53.148;8.204;2024-03-07T01:58:24;40.67;37.29;45.36;;
49215;Laerm;45943;53.148;8.204;2024-03-07T02:00:50;41.04;37.92;46.57;;
49215;Laerm;45943;53.148;8.204;2024-03-07T02:03:16;41.25;37.51;46.29;;
49215;Laerm;45943;53.148;8.204;2024-03-07T02:05:43;45.86;37.72;62.34;;
49215;Laerm;45943;53.148;8.204;2024-03-07T02:08:09;40.96;37.51;43.74;;
49215;Laerm;45943;53.148;8.204;2024-03-07T02:10:35;40.38;37.05;45.99;;
49215;Laerm;45943;53.148;8.204;2024-03-07T02:13:01;40.68;37.05;46.35;;
49215;Laerm;45943;53.148;8.204;2024-03-07T02:15:28;41.41;37.29;57.49;;
49215;Laerm;45943;53.148;8.204;2024-03-07T02:17:54;41.58;36.80;58.40;;
49215;Laerm;45943;53.148;8.204;2024-03-07T02:20:20;47.78;37.92;65.35;;
49215;Laerm;45943;53.148;8.204;2024-03-07T02:22:46;40.93;37.29;43.25;;
49215;Laerm;45943;53.148;8.204;2024-03-07T02:25:13;41.24;37.72;45.43;;
49215;Laerm;45943;53.148;8.204;2024-03-07T02:27:39;41.35;37.72;43.99;;
49215;Laerm;45943;53.148;8.204;2024-03-07T02:30:05;41.45;38.30;47.36;;
49215;Laerm;45943;53.148;8.204;2024-03-07T02:32:36;41.93;37.95;45.03;;
49215;Laerm;45943;53.148;8.204;2024-03-07T02:35:06;41.93;38.81;44.32;;
49215;Laerm;45943;53.148;8.204;2024-03-07T02:37:32;41.36;38.30;44.41;;
49215;Laerm;45943;53.148;8.204;2024-03-07T02:39:58;43.39;38.81;59.22;;
49215;Laerm;45943;53.148;8.204;2024-03-07T02:42:24;41.41;38.65;43.99;;
49215;Laerm;45943;53.148;8.204;2024-03-07T02:44:50;41.69;38.12;43.84;;
49215;Laerm;45943;53.148;8.204;2024-03-07T02:47:18;41.55;38.30;43.53;;
49215;Laerm;45943;53.148;8.204;2024-03-07T02:49:44;42.31;38.81;44.79;;
49215;Laerm;45943;53.148;8.204;2024-03-07T02:52:10;42.38;38.81;44.87;;
49215;Laerm;45943;53.148;8.204;2024-03-07T02:54:36;58.43;39.27;71.47;;
49215;Laerm;45943;53.148;8.204;2024-03-07T02:57:02;56.04;39.41;71.82;;
49215;Laerm;45943;53.148;8.204;2024-03-07T02:59:28;42.32;39.12;46.46;;
49215;Laerm;45943;53.148;8.204;2024-03-07T03:01:54;49.41;38.97;67.97;;
49215;Laerm;45943;53.148;8.204;2024-03-07T03:04:21;41.77;38.48;46.23;;
49215;Laerm;45943;53.148;8.204;2024-03-07T03:06:47;41.82;39.12;43.84;;
49215;Laerm;45943;53.148;8.204;2024-03-07T03:09:13;41.83;38.12;49.71;;
49215;Laerm;45943;53.148;8.204;2024-03-07T03:11:46;41.32;37.72;46.35;;
49215;Laerm;45943;53.148;8.204;2024-03-07T03:14:12;40.98;37.72;44.14;;
49215;Laerm;45943;53.148;8.204;2024-03-07T03:16:42;41.30;37.29;43.64;;
49215;Laerm;45943;53.148;8.204;2024-03-07T03:19:10;41.90;38.65;44.71;;
49215;Laerm;45943;53.148;8.204;2024-03-07T03:21:36;41.56;38.30;44.09;;
49215;Laerm;45943;53.148;8.204;2024-03-07T03:24:02;41.05;38.12;44.83;;
49215;Laerm;45943;53.148;8.204;2024-03-07T03:26:28;46.48;38.62;62.83;;
49215;Laerm;45943;53.148;8.204;2024-03-07T03:28:54;41.38;37.72;50.96;;
49215;Laerm;45943;53.148;8.204;2024-03-07T03:31:20;62.30;39.94;73.83;;
49215;Laerm;45943;53.148;8.204;2024-03-07T03:33:46;41.02;37.29;44.75;;
49215;Laerm;45943;53.148;8.204;2024-03-07T03:36:13;40.50;36.80;45.40;;
49215;Laerm;45943;53.148;8.204;2024-03-07T03:38:39;40.43;36.26;46.90;;
49215;Laerm;45943;53.148;8.204;2024-03-07T03:41:05;41.18;37.72;50.56;;
49215;Laerm;45943;53.148;8.204;2024-03-07T03:43:31;41.47;38.30;49.47;;
49215;Laerm;45943;53.148;8.204;2024-03-07T03:45:58;40.45;36.26;44.32;;
49215;Laerm;45943;53.148;8.204;2024-03-07T03:48:24;39.94;35.96;50.44;;
49215;Laerm;45943;53.148;8.204;2024-03-07T03:50:49;61.06;37.92;72.76;;
49215;Laerm;45943;53.148;8.204;2024-03-07T03:53:15;41.16;37.05;47.22;;
49215;Laerm;45943;53.148;8.204;2024-03-07T03:55:42;49.16;36.54;68.82;;
49215;Laerm;45943;53.148;8.204;2024-03-07T03:58:08;40.22;36.80;45.50;;
49215;Laerm;45943;53.148;8.204;2024-03-07T04:00:35;39.86;36.26;44.71;;
49215;Laerm;45943;53.148;8.204;2024-03-07T04:03:00;40.05;36.46;42.89;;
49215;Laerm;45943;53.148;8.204;2024-03-07T04:05:26;40.14;36.26;53.05;;
49215;Laerm;45943;53.148;8.204;2024-03-07T04:07:52;40.54;36.26;46.88;;
49215;Laerm;45943;53.148;8.204;2024-03-07T04:10:19;44.85;35.96;60.78;;
49215;Laerm;45943;53.148;8.204;2024-03-07T04:12:45;41.38;37.29;44.04;;
49215;Laerm;45943;53.148;8.204;2024-03-07T04:15:14;40.76;37.05;44.71;;
49215;Laerm;45943;53.148;8.204;2024-03-07T04:17:43;40.59;37.29;48.14;;
49215;Laerm;45943;53.148;8.204;2024-03-07T04:20:12;40.89;37.72;46.35;;
49215;Laerm;45943;53.148;8.204;2024-03-07T04:22:39;52.08;38.97;68.80;;
49215;Laerm;45943;53.148;8.204;2024-03-07T04:25:06;47.20;39.27;63.76;;
49215;Laerm;45943;53.148;8.204;2024-03-07T04:27:36;44.07;38.48;58.25;;
49215;Laerm;45943;53.148;8.204;2024-03-07T04:30:06;53.74;39.94;69.35;;
49215;Laerm;45943;53.148;8.204;2024-03-07T04:32:33;47.01;37.72;63.07;;
49215;Laerm;45943;53.148;8.204;2024-03-07T04:35:04;53.93;38.30;67.42;;
49215;Laerm;45943;53.148;8.204;2024-03-07T04:37:36;52.94;38.97;70.91;;
49215;Laerm;45943;53.148;8.204;2024-03-07T04:40:07;55.68;39.81;68.61;;
49215;Laerm;45943;53.148;8.204;2024-03-07T04:42:45;48.24;38.48;63.93;;
49215;Laerm;45943;53.148;8.204;2024-03-07T04:45:12;51.43;37.29;66.94;;
49215;Laerm;45943;53.148;8.204;2024-03-07T04:47:41;55.28;38.48;69.70;;
49215;Laerm;45943;53.148;8.204;2024-03-07T04:50:11;51.37;37.72;65.82;;
49215;Laerm;45943;53.148;8.204;2024-03-07T04:52:38;54.60;38.81;69.98;;
49215;Laerm;45943;53.148;8.204;2024-03-07T04:55:08;48.35;37.72;64.66;;
49215;Laerm;45943;53.148;8.204;2024-03-07T04:57:39;52.60;38.48;68.58;;
49215;Laerm;45943;53.148;8.204;2024-03-07T05:00:10;45.12;38.12;60.78;;
49215;Laerm;45943;53.148;8.204;2024-03-07T05:02:40;41.21;37.92;50.63;;
49215;Laerm;45943;53.148;8.204;2024-03-07T05:05:07;42.37;36.54;60.12;;
49215;Laerm;45943;53.148;8.204;2024-03-07T05:07:33;44.66;37.72;60.52;;
49215;Laerm;45943;53.148;8.204;2024-03-07T05:09:59;51.01;38.81;66.85;;
49215;Laerm;45943;53.148;8.204;2024-03-07T05:12:26;49.48;38.30;68.47;;
49215;Laerm;45943;53.148;8.204;2024-03-07T05:14:52;51.01;38.48;65.59;;
49215;Laerm;45943;53.148;8.204;2024-03-07T05:17:19;50.51;39.12;68.77;;
49215;Laerm;45943;53.148;8.204;2024-03-07T05:19:45;53.99;39.12;72.03;;
49215;Laerm;45943;53.148;8.204;2024-03-07T05:22:11;49.04;39.34;66.68;;
49215;Laerm;45943;53.148;8.204;2024-03-07T05:24:42;53.54;39.12;72.09;;
49215;Laerm;45943;53.148;8.204;2024-03-07T05:27:08;51.59;39.68;67.78;;
49215;Laerm;45943;53.148;8.204;2024-03-07T05:29:37;52.89;40.30;72.12;;
49215;Laerm;45943;53.148;8.204;2024-03-07T05:32:23;59.37;39.55;83.41;;
49215;Laerm;45943;53.148;8.204;2024-03-07T05:34:52;54.55;40.30;74.59;;
49215;Laerm;45943;53.148;8.204;2024-03-07T05:37:21;53.41;39.55;68.48;;
49215;Laerm;45943;53.148;8.204;2024-03-07T05:39:51;54.57;41.13;67.39;;
49215;Laerm;45943;53.148;8.204;2024-03-07T05:42:17;46.98;40.73;61.87;;
49215;Laerm;45943;53.148;8.204;2024-03-07T05:44:46;53.65;40.93;67.29;;
49215;Laerm;45943;53.148;8.204;2024-03-07T05:47:12;50.07;40.83;66.40;;
49215;Laerm;45943;53.148;8.204;2024-03-07T05:49:41;56.05;40.52;67.71;;
49215;Laerm;45943;53.148;8.204;2024-03-07T05:52:07;55.26;41.31;68.02;;
49215;Laerm;45943;53.148;8.204;2024-03-07T05:54:34;55.70;39.94;71.46;;
49215;Laerm;45943;53.148;8.204;2024-03-07T05:57:01;52.76;40.18;67.19;;
49215;Laerm;45943;53.148;8.204;2024-03-07T05:59:27;52.72;40.63;65.75;;
49215;Laerm;45943;53.148;8.204;2024-03-07T06:01:59;60.61;41.13;77.73;;
49215;Laerm;45943;53.148;8.204;2024-03-07T06:04:26;58.00;41.31;74.22;;
49215;Laerm;45943;53.148;8.204;2024-03-07T06:06:52;56.18;41.66;69.25;;
49215;Laerm;45943;53.148;8.204;2024-03-07T06:09:18;57.58;41.31;71.01;;
49215;Laerm;45943;53.148;8.204;2024-03-07T06:11:48;56.08;41.49;68.04;;
49215;Laerm;45943;53.148;8.204;2024-03-07T06:14:14;55.25;41.22;66.61;;
49215;Laerm;45943;53.148;8.204;2024-03-07T06:16:42;54.29;41.74;67.73;;
49215;Laerm;45943;53.148;8.204;2024-03-07T06:19:08;54.63;42.42;66.16;;
49215;Laerm;45943;53.148;8.204;2024-03-07T06:21:36;57.77;42.63;69.86;;
49215;Laerm;45943;53.148;8.204;2024-03-07T06:24:02;53.76;42.42;71.82;;
49215;Laerm;45943;53.148;8.204;2024-03-07T06:26:30;60.13;43.19;68.55;;
49215;Laerm;45943;53.148;8.204;2024-03-07T06:29:03;54.97;41.03;66.82;;
49215;Laerm;45943;53.148;8.204;2024-03-07T06:31:34;53.25;41.66;66.99;;
49215;Laerm;45943;53.148;8.204;2024-03-07T06:34:00;56.42;42.82;67.04;;
49215;Laerm;45943;53.148;8.204;2024-03-07T06:36:26;56.38;42.63;67.63;;
49215;Laerm;45943;53.148;8.204;2024-03-07T06:38:53;56.71;43.13;68.08;;
49215;Laerm;45943;53.148;8.204;2024-03-07T06:41:20;61.18;45.11;77.67;;
49215;Laerm;45943;53.148;8.204;2024-03-07T06:43:46;56.32;41.82;67.93;;
49215;Laerm;45943;53.148;8.204;2024-03-07T06:46:12;56.50;42.89;70.99;;
49215;Laerm;45943;53.148;8.204;2024-03-07T06:48:38;54.46;41.31;67.44;;
49215;Laerm;45943;53.148;8.204;2024-03-07T06:51:07;55.93;43.74;65.96;;
49215;Laerm;45943;53.148;8.204;2024-03-07T06:53:33;56.23;41.90;68.61;;
49215;Laerm;45943;53.148;8.204;2024-03-07T06:56:00;55.41;42.01;70.57;;
49215;Laerm;45943;53.148;8.204;2024-03-07T06:58:26;53.07;41.22;72.92;;
49215;Laerm;45943;53.148;8.204;2024-03-07T07:00:53;54.78;41.22;69.16;;
49215;Laerm;45943;53.148;8.204;2024-03-07T07:03:23;55.37;43.25;67.93;;
49215;Laerm;45943;53.148;8.204;2024-03-07T07:05:50;57.03;41.90;72.37;;
49215;Laerm;45943;53.148;8.204;2024-03-07T07:08:16;58.00;41.58;72.26;;
49215;Laerm;45943;53.148;8.204;2024-03-07T07:10:42;57.08;43.53;75.67;;
49215;Laerm;45943;53.148;8.204;2024-03-07T07:13:09;57.32;41.98;74.46;;
49215;Laerm;45943;53.148;8.204;2024-03-07T07:15:36;56.03;42.76;68.75;;
49215;Laerm;45943;53.148;8.204;2024-03-07T07:18:03;56.59;41.98;74.27;;
49215;Laerm;45943;53.148;8.204;2024-03-07T07:20:29;56.61;42.13;74.99;;
49215;Laerm;45943;53.148;8.204;2024-03-07T07:22:55;58.39;43.02;74.64;;
49215;Laerm;45943;53.148;8.204;2024-03-07T07:25:23;58.80;43.19;70.79;;
49215;Laerm;45943;53.148;8.204;2024-03-07T07:27:50;66.86;44.54;90.82;;
49215;Laerm;45943;53.148;8.204;2024-03-07T07:30:19;57.47;41.31;75.52;;
49215;Laerm;45943;53.148;8.204;2024-03-07T07:32:49;54.55;41.98;77.72;;
49215;Laerm;45943;53.148;8.204;2024-03-07T07:35:16;59.30;42.28;78.14;;
49215;Laerm;45943;53.148;8.204;2024-03-07T07:37:45;54.23;41.82;69.08;;
49215;Laerm;45943;53.148;8.204;2024-03-07T07:40:13;54.09;42.28;73.31;;
49215;Laerm;45943;53.148;8.204;2024-03-07T07:42:41;57.72;42.63;71.62;;
49215;Laerm;45943;53.148;8.204;2024-03-07T07:45:11;58.13;43.64;71.91;;
49215;Laerm;45943;53.148;8.204;2024-03-07T07:47:41;58.32;44.32;71.79;;
49215;Laerm;45943;53.148;8.204;2024-03-07T07:50:12;58.26;43.89;74.67;;
49215;Laerm;45943;53.148;8.204;2024-03-07T07:52:53;57.82;43.58;73.45;;
49215;Laerm;45943;53.148;8.204;2024-03-07T07:55:28;56.69;44.72;67.89;;
49215;Laerm;45943;53.148;8.204;2024-03-07T07:57:59;55.20;42.89;70.52;;
49215;Laerm;45943;53.148;8.204;2024-03-07T08:00:26;56.69;43.07;68.88;;
49215;Laerm;45943;53.148;8.204;2024-03-07T08:02:59;59.39;43.07;79.13;;
49215;Laerm;45943;53.148;8.204;2024-03-07T08:05:31;56.07;43.13;68.83;;
49215;Laerm;45943;53.148;8.204;2024-03-07T08:08:00;53.74;42.76;66.71;;
49215;Laerm;45943;53.148;8.204;2024-03-07T08:10:28;57.26;44.18;72.07;;
49215;Laerm;45943;53.148;8.204;2024-03-07T08:12:55;55.46;41.40;77.16;;
49215;Laerm;45943;53.148;8.204;2024-03-07T08:15:21;52.83;42.76;68.22;;
49215;Laerm;45943;53.148;8.204;2024-03-07T08:17:48;53.26;42.96;66.45;;
49215;Laerm;45943;53.148;8.204;2024-03-07T08:20:16;56.81;42.49;68.58;;
49215;Laerm;45943;53.148;8.204;2024-03-07T08:22:46;55.97;42.35;66.92;;
49215;Laerm;45943;53.148;8.204;2024-03-07T08:25:14;52.48;41.40;72.02;;
49215;Laerm;45943;53.148;8.204;2024-03-07T08:27:43;52.46;42.76;67.32;;
49215;Laerm;45943;53.148;8.204;2024-03-07T08:30:11;60.79;42.21;72.12;;
49215;Laerm;45943;53.148;8.204;2024-03-07T08:32:41;51.67;41.82;64.36;;
49215;Laerm;45943;53.148;8.204;2024-03-07T08:35:08;55.46;43.74;69.83;;
49215;Laerm;45943;53.148;8.204;2024-03-07T08:37:36;54.03;42.06;67.76;;
49215;Laerm;45943;53.148;8.204;2024-03-07T08:40:02;54.05;42.49;66.13;;
49215;Laerm;45943;53.148;8.204;2024-03-07T08:42:33;55.89;43.07;67.86;;
49215;Laerm;45943;53.148;8.204;2024-03-07T08:45:01;55.45;42.28;68.36;;
49215;Laerm;45943;53.148;8.204;2024-03-07T08:47:34;58.38;42.42;75.17;;
49215;Laerm;45943;53.148;8.204;2024-03-07T08:50:03;53.79;42.21;67.74;;
49215;Laerm;45943;53.148;8.204;2024-03-07T08:52:35;56.02;42.56;77.07;;
49215;Laerm;45943;53.148;8.204;2024-03-07T08:55:03;52.55;42.95;64.89;;
49215;Laerm;45943;53.148;8.204;2024-03-07T08:57:29;53.70;42.54;68.38;;
49215;Laerm;45943;53.148;8.204;2024-03-07T08:59:56;52.29;41.13;65.54;;
49215;Laerm;45943;53.148;8.204;2024-03-07T09:02:22;53.17;41.82;65.64;;
49215;Laerm;45943;53.148;8.204;2024-03-07T09:04:49;54.51;41.82;68.12;;
49215;Laerm;45943;53.148;8.204;2024-03-07T09:07:15;54.97;41.13;73.18;;
49215;Laerm;45943;53.148;8.204;2024-03-07T09:09:41;52.16;41.49;69.03;;
49215;Laerm;45943;53.148;8.204;2024-03-07T09:12:09;53.02;41.58;66.95;;
49215;Laerm;45943;53.148;8.204;2024-03-07T09:14:35;53.78;41.58;66.69;;
49215;Laerm;45943;53.148;8.204;2024-03-07T09:17:01;52.00;41.22;63.42;;
49215;Laerm;45943;53.148;8.204;2024-03-07T09:19:28;52.82;42.35;65.49;;
49215;Laerm;45943;53.148;8.204;2024-03-07T09:21:54;57.37;43.45;68.73;;
49215;Laerm;45943;53.148;8.204;2024-03-07T09:24:20;58.68;42.13;75.12;;
49215;Laerm;45943;53.148;8.204;2024-03-07T09:26:50;54.51;42.49;69.00;;
49215;Laerm;45943;53.148;8.204;2024-03-07T09:29:18;58.36;41.13;73.73;;
49215;Laerm;45943;53.148;8.204;2024-03-07T09:31:50;50.89;40.78;68.32;;
49215;Laerm;45943;53.148;8.204;2024-03-07T09:34:20;52.98;41.22;67.41;;
49215;Laerm;45943;53.148;8.204;2024-03-07T09:36:47;52.86;41.49;68.44;;
49215;Laerm;45943;53.148;8.204;2024-03-07T09:39:15;54.69;41.98;68.89;;
49215;Laerm;45943;53.148;8.204;2024-03-07T09:41:42;55.17;41.58;68.47;;
49215;Laerm;45943;53.148;8.204;2024-03-07T09:44:15;51.50;41.13;64.32;;
49215;Laerm;45943;53.148;8.204;2024-03-07T09:46:54;52.82;41.03;67.84;;
49215;Laerm;45943;53.148;8.204;2024-03-07T09:49:21;52.42;41.22;66.18;;
49215;Laerm;45943;53.148;8.204;2024-03-07T09:51:50;51.85;40.52;66.38;;
49215;Laerm;45943;53.148;8.204;2024-03-07T09:54:21;54.91;40.93;67.94;;
49215;Laerm;45943;53.148;8.204;2024-03-07T09:56:49;54.69;41.03;68.67;;
49215;Laerm;45943;53.148;8.204;2024-03-07T09:59:19;52.35;41.82;65.55;;
49215;Laerm;45943;53.148;8.204;2024-03-07T10:01:47;51.21;41.40;65.32;;
49215;Laerm;45943;53.148;8.204;2024-03-07T10:04:25;53.95;41.31;72.66;;
49215;Laerm;45943;53.148;8.204;2024-03-07T10:06:54;59.54;42.06;80.05;;
49215;Laerm;45943;53.148;8.204;2024-03-07T10:09:21;57.01;40.52;69.83;;
49215;Laerm;45943;53.148;8.204;2024-03-07T10:12:00;51.53;40.41;64.14;;
49215;Laerm;45943;53.148;8.204;2024-03-07T10:14:32;55.41;42.63;67.77;;
49215;Laerm;45943;53.148;8.204;2024-03-07T10:16:58;54.43;40.63;66.17;;
49215;Laerm;45943;53.148;8.204;2024-03-07T10:19:24;53.54;41.66;65.87;;
49215;Laerm;45943;53.148;8.204;2024-03-07T10:21:50;57.27;42.89;72.54;;
49215;Laerm;45943;53.148;8.204;2024-03-07T10:24:24;56.41;42.42;68.90;;
49215;Laerm;45943;53.148;8.204;2024-03-07T10:26:50;55.15;41.13;68.17;;
49215;Laerm;45943;53.148;8.204;2024-03-07T10:29:17;55.12;41.03;66.71;;
49215;Laerm;45943;53.148;8.204;2024-03-07T10:31:44;50.69;41.98;63.36;;
49215;Laerm;45943;53.148;8.204;2024-03-07T10:34:11;55.25;42.06;69.71;;
49215;Laerm;45943;53.148;8.204;2024-03-07T10:36:37;48.24;42.21;61.09;;
49215;Laerm;45943;53.148;8.204;2024-03-07T10:39:05;54.39;41.82;68.52;;
49215;Laerm;45943;53.148;8.204;2024-03-07T10:41:49;55.37;41.74;70.24;;
49215;Laerm;45943;53.148;8.204;2024-03-07T10:44:20;54.29;41.82;66.48;;
49215;Laerm;45943;53.148;8.204;2024-03-07T10:46:52;52.54;40.73;66.42;;
49215;Laerm;45943;53.148;8.204;2024-03-07T10:49:19;51.84;41.22;69.69;;
49215;Laerm;45943;53.148;8.204;2024-03-07T10:52:11;53.64;40.83;65.85;;
49215;Laerm;45943;53.148;8.204;2024-03-07T10:54:59;54.50;40.41;66.86;;
49215;Laerm;45943;53.148;8.204;2024-03-07T10:57:31;53.31;41.13;67.01;;
49215;Laerm;45943;53.148;8.204;2024-03-07T11:00:03;51.54;40.63;65.49;;
49215;Laerm;45943;53.148;8.204;2024-03-07T11:02:51;53.77;41.90;72.59;;
49215;Laerm;45943;53.148;8.204;2024-03-07T11:05:26;61.04;44.23;77.28;;
49215;Laerm;45943;53.148;8.204;2024-03-07T11:07:58;54.59;41.31;68.68;;
49215;Laerm;45943;53.148;8.204;2024-03-07T11:10:25;57.11;41.31;70.51;;
49215;Laerm;45943;53.148;8.204;2024-03-07T11:12:52;55.19;41.98;67.92;;
49215;Laerm;45943;53.148;8.204;2024-03-07T11:15:21;54.70;42.13;66.16;;
49215;Laerm;45943;53.148;8.204;2024-03-07T11:17:50;55.63;42.42;66.02;;
49215;Laerm;45943;53.148;8.204;2024-03-07T11:20:23;53.48;41.03;65.79;;
49215;Laerm;45943;53.148;8.204;2024-03-07T11:22:50;54.10;40.41;67.89;;
49215;Laerm;45943;53.148;8.204;2024-03-07T11:25:21;52.47;40.41;69.28;;
49215;Laerm;45943;53.148;8.204;2024-03-07T11:28:00;59.42;41.40;70.21;;
49215;Laerm;45943;53.148;8.204;2024-03-07T11:30:26;57.66;42.28;68.16;;
49215;Laerm;45943;53.148;8.204;2024-03-07T11:32:54;54.54;41.39;66.99;;
49215;Laerm;45943;53.148;8.204;2024-03-07T11:35:30;54.38;40.52;70.62;;
49215;Laerm;45943;53.148;8.204;2024-03-07T11:37:58;56.44;41.49;70.09;;
49215;Laerm;45943;53.148;8.204;2024-03-07T11:42:53;53.55;40.06;67.40;;
49215;Laerm;45943;53.148;8.204;2024-03-07T11:45:20;56.20;41.66;81.56;;
49215;Laerm;45943;53.148;8.204;2024-03-07T11:47:57;55.33;40.18;73.26;;
49215;Laerm;45943;53.148;8.204;2024-03-07T11:50:26;56.12;39.81;68.65;;
49215;Laerm;45943;53.148;8.204;2024-03-07T11:52:53;52.04;40.30;69.32;;
49215;Laerm;45943;53.148;8.204;2024-03-07T11:55:21;55.11;40.83;69.80;;
49215;Laerm;45943;53.148;8.204;2024-03-07T11:57:48;56.54;40.41;67.06;;
49215;Laerm;45943;53.148;8.204;2024-03-07T12:00:15;54.81;41.23;68.39;;
49215;Laerm;45943;53.148;8.204;2024-03-07T12:02:42;53.71;40.41;65.21;;
49215;Laerm;45943;53.148;8.204;2024-03-07T12:05:09;56.25;40.52;69.73;;
49215;Laerm;45943;53.148;8.204;2024-03-07T12:07:35;59.31;41.98;77.21;;
49215;Laerm;45943;53.148;8.204;2024-03-07T12:10:03;54.10;41.49;67.80;;
49215;Laerm;45943;53.148;8.204;2024-03-07T12:12:30;57.54;41.13;72.15;;
49215;Laerm;45943;53.148;8.204;2024-03-07T12:14:56;55.90;41.82;70.62;;
49215;Laerm;45943;53.148;8.204;2024-03-07T12:17:23;52.86;40.63;67.72;;
49215;Laerm;45943;53.148;8.204;2024-03-07T12:19:49;55.54;41.90;68.14;;
49215;Laerm;45943;53.148;8.204;2024-03-07T12:22:19;53.15;41.39;70.14;;
49215;Laerm;45943;53.148;8.204;2024-03-07T12:24:59;56.55;41.40;67.82;;
49215;Laerm;45943;53.148;8.204;2024-03-07T12:27:28;53.04;41.22;66.28;;
49215;Laerm;45943;53.148;8.204;2024-03-07T12:29:55;54.93;41.31;68.33;;
49215;Laerm;45943;53.148;8.204;2024-03-07T12:32:21;54.46;41.71;69.03;;
49215;Laerm;45943;53.148;8.204;2024-03-07T12:34:47;49.00;40.18;66.01;;
49215;Laerm;45943;53.148;8.204;2024-03-07T12:37:13;51.98;40.93;64.49;;
49215;Laerm;45943;53.148;8.204;2024-03-07T12:39:45;57.51;42.90;68.31;;
49215;Laerm;45943;53.148;8.204;2024-03-07T12:42:24;55.82;41.74;68.15;;
49215;Laerm;45943;53.148;8.204;2024-03-07T12:44:50;52.16;40.63;65.84;;
49215;Laerm;45943;53.148;8.204;2024-03-07T12:47:17;52.28;40.83;64.82;;
49215;Laerm;45943;53.148;8.204;2024-03-07T12:49:44;54.53;41.82;68.48;;
49215;Laerm;45943;53.148;8.204;2024-03-07T12:52:11;53.53;42.35;64.84;;
49215;Laerm;45943;53.148;8.204;2024-03-07T12:54:43;52.29;40.41;65.55;;
49215;Laerm;45943;53.148;8.204;2024-03-07T12:57:10;53.78;40.49;65.45;;
49215;Laerm;45943;53.148;8.204;2024-03-07T12:59:39;53.56;40.30;67.66;;
49215;Laerm;45943;53.148;8.204;2024-03-07T13:02:11;54.39;41.13;67.87;;
49215;Laerm;45943;53.148;8.204;2024-03-07T13:04:41;56.98;40.93;70.13;;
49215;Laerm;45943;53.148;8.204;2024-03-07T13:07:08;54.78;42.28;66.61;;
49215;Laerm;45943;53.148;8.204;2024-03-07T13:09:34;56.55;43.01;70.14;;
49215;Laerm;45943;53.148;8.204;2024-03-07T13:12:01;51.21;40.41;71.36;;
49215;Laerm;45943;53.148;8.204;2024-03-07T13:14:32;53.09;41.03;67.44;;
49215;Laerm;45943;53.148;8.204;2024-03-07T13:17:05;53.17;39.81;67.84;;
49215;Laerm;45943;53.148;8.204;2024-03-07T13:19:32;53.63;40.83;67.66;;
49215;Laerm;45943;53.148;8.204;2024-03-07T13:21:58;53.50;40.63;64.80;;
49215;Laerm;45943;53.148;8.204;2024-03-07T13:24:27;52.85;40.52;67.10;;
49215;Laerm;45943;53.148;8.204;2024-03-07T13:26:53;59.68;42.76;77.12;;
49215;Laerm;45943;53.148;8.204;2024-03-07T13:29:20;54.97;41.13;72.15;;
49215;Laerm;45943;53.148;8.204;2024-03-07T13:31:51;50.87;40.41;70.10;;
49215;Laerm;45943;53.148;8.204;2024-03-07T13:34:18;53.54;39.94;70.36;;
49215;Laerm;45943;53.148;8.204;2024-03-07T13:36:44;52.12;40.18;66.36;;
49215;Laerm;45943;53.148;8.204;2024-03-07T13:39:12;51.91;40.30;64.89;;
49215;Laerm;45943;53.148;8.204;2024-03-07T13:41:43;56.53;41.58;72.53;;
49215;Laerm;45943;53.148;8.204;2024-03-07T13:44:14;54.07;41.31;72.20;;
49215;Laerm;45943;53.148;8.204;2024-03-07T13:46:40;53.38;40.63;67.15;;
49215;Laerm;45943;53.148;8.204;2024-03-07T13:49:07;52.51;42.06;72.33;;
49215;Laerm;45943;53.148;8.204;2024-03-07T13:51:38;63.46;43.36;79.07;;